Time;durP1;ratioP1;P1;durP2;ratioP2;P2;SDS_P1;SDS_P2;PMS_P1;PMS_P2;Temp;Humidity;BMP_temperature;BMP_pressure;BME280_temperature;BME280_humidity;BME280_pressure;Samples;Min_cycle;Max_cycle;Signal;HPM_P1;HPM_P2
2022/08/26 00:00:44;;;;;;;30.15;23.10;;;20.40;99.90;;;;;;5039328;28;20049;-69
2022/08/26 00:03:11;;;;;;;32.42;23.58;;;20.40;99.90;;;;;;5038016;28;20496;-71
2022/08/26 00:05:38;;;;;;;32.17;22.75;;;20.40;99.90;;;;;;5023861;28;20095;-68
2022/08/26 00:08:04;;;;;;;32.33;19.60;;;20.40;99.90;;;;;;5023893;28;20524;-70
2022/08/26 00:10:31;;;;;;;29.13;21.08;;;20.40;99.90;;;;;;5044121;28;20045;-69
2022/08/26 00:12:57;;;;;;;31.92;21.02;;;20.50;99.90;;;;;;5041492;28;20041;-70
2022/08/26 00:15:23;;;;;;;35.50;22.15;;;20.50;99.90;;;;;;5040573;28;20111;-69
2022/08/26 00:17:50;;;;;;;30.90;19.75;;;20.50;99.90;;;;;;5021944;28;20048;-69
2022/08/26 00:20:20;;;;;;;39.95;21.85;;;20.50;99.90;;;;;;5040036;28;20124;-68
2022/08/26 00:22:45;;;;;;;31.38;20.27;;;20.50;99.90;;;;;;5038784;28;20102;-69
2022/08/26 00:25:12;;;;;;;36.17;23.25;;;20.60;99.90;;;;;;5037672;28;20037;-69
2022/08/26 00:27:38;;;;;;;31.90;21.60;;;20.50;99.90;;;;;;5025120;28;20230;-70
2022/08/26 00:30:07;;;;;;;34.90;21.85;;;20.50;99.90;;;;;;5037584;28;20080;-72
2022/08/26 00:32:33;;;;;;;33.40;21.95;;;20.50;99.90;;;;;;5035473;28;20045;-69
2022/08/26 00:34:59;;;;;;;34.92;22.05;;;20.50;99.90;;;;;;5038197;28;20771;-69
2022/08/26 00:37:24;;;;;;;30.77;21.45;;;20.50;99.90;;;;;;5022744;28;20060;-69
2022/08/26 00:39:51;;;;;;;35.42;21.27;;;20.50;99.90;;;;;;5040777;28;20040;-70
2022/08/26 00:42:17;;;;;;;33.95;20.30;;;20.50;99.90;;;;;;5042860;28;20057;-71
2022/08/26 00:44:43;;;;;;;33.95;21.35;;;20.50;99.90;;;;;;5038695;28;20055;-71
2022/08/26 00:47:20;;;;;;;33.97;20.95;;;20.50;99.90;;;;;;5025639;28;20041;-71
2022/08/26 00:49:46;;;;;;;33.80;19.67;;;20.40;99.90;;;;;;5038040;28;20116;-72
2022/08/26 00:52:16;;;;;;;32.45;20.00;;;20.40;99.90;;;;;;5038012;28;20514;-70
2022/08/26 00:54:47;;;;;;;34.03;19.77;;;20.40;99.90;;;;;;5035380;28;20046;-70
2022/08/26 00:57:16;;;;;;;28.92;18.98;;;20.40;99.90;;;;;;5025463;28;20045;-72
2022/08/26 00:59:46;;;;;;;29.50;19.52;;;20.50;99.90;;;;;;5041622;28;20037;-71
2022/08/26 01:02:12;;;;;;;37.10;20.67;;;20.40;99.90;;;;;;5037599;28;20059;-71
2022/08/26 01:04:38;;;;;;;33.78;19.85;;;20.40;99.90;;;;;;5035258;28;20041;-70
2022/08/26 01:07:04;;;;;;;34.25;20.30;;;20.40;99.90;;;;;;5021818;28;20451;-72
2022/08/26 01:09:31;;;;;;;31.17;19.80;;;20.30;99.90;;;;;;5039771;28;20044;-70
2022/08/26 01:11:59;;;;;;;37.35;19.92;;;20.40;99.90;;;;;;5027500;28;20044;-70
2022/08/26 01:14:28;;;;;;;28.48;18.60;;;20.40;99.90;;;;;;5020725;28;20102;-69
2022/08/26 01:16:54;;;;;;;31.27;19.35;;;20.30;99.90;;;;;;5020760;28;20041;-71
2022/08/26 01:19:26;;;;;;;29.52;19.70;;;20.30;99.90;;;;;;5042821;28;20040;-70
2022/08/26 01:21:58;;;;;;;29.52;18.73;;;20.30;99.90;;;;;;5039727;28;20847;-70
2022/08/26 01:24:27;;;;;;;33.75;18.30;;;20.20;99.90;;;;;;5039593;28;20044;-70
2022/08/26 01:26:59;;;;;;;28.52;18.60;;;20.20;99.90;;;;;;5025787;28;20473;-70
2022/08/26 01:29:27;;;;;;;35.30;19.48;;;20.20;99.90;;;;;;5039729;28;20045;-71
2022/08/26 01:31:55;;;;;;;30.58;18.10;;;20.20;99.90;;;;;;5038465;28;20060;-70
2022/08/26 01:34:31;;;;;;;29.35;18.05;;;20.20;99.90;;;;;;5040357;28;20045;-70
2022/08/26 01:37:02;;;;;;;32.08;18.85;;;20.20;99.90;;;;;;5026239;28;20041;-72
2022/08/26 01:39:30;;;;;;;34.60;18.20;;;20.20;99.90;;;;;;5043801;28;20032;-70
2022/08/26 01:41:57;;;;;;;27.95;17.90;;;20.20;99.90;;;;;;5045925;28;20064;-70
2022/08/26 01:44:29;;;;;;;34.17;19.58;;;20.30;99.90;;;;;;5040142;28;20110;-70
2022/08/26 01:46:56;;;;;;;36.15;21.75;;;20.20;99.90;;;;;;5024456;28;20072;-72
2022/08/26 01:49:22;;;;;;;35.50;20.80;;;20.20;99.90;;;;;;5044978;28;20045;-72
2022/08/26 01:51:52;;;;;;;39.00;21.38;;;20.20;99.90;;;;;;5029500;28;20045;-69
2022/08/26 01:54:18;;;;;;;41.00;22.23;;;20.30;99.90;;;;;;5041256;28;20040;-70
2022/08/26 01:56:45;;;;;;;35.45;21.63;;;20.20;99.90;;;;;;5027393;28;20459;-70
2022/08/26 01:59:13;;;;;;;35.22;22.13;;;20.20;99.90;;;;;;5041953;28;20076;-70
2022/08/26 02:01:39;;;;;;;37.25;23.38;;;20.20;99.90;;;;;;5043035;28;20457;-70
2022/08/26 02:04:33;;;;;;;36.38;20.88;;;20.20;99.90;;;;;;5040605;28;20389;-72
2022/08/26 02:07:04;;;;;;;38.15;22.60;;;20.20;99.90;;;;;;5024160;28;20058;-69
2022/08/26 02:09:29;;;;;;;34.80;20.00;;;20.20;99.90;;;;;;5043967;28;20055;-70
2022/08/26 02:11:55;;;;;;;36.92;20.88;;;20.20;99.90;;;;;;5041660;28;20037;-71
2022/08/26 02:14:28;;;;;;;39.53;21.58;;;20.20;99.90;;;;;;5040177;28;20041;-70
2022/08/26 02:16:55;;;;;;;37.28;20.70;;;20.20;99.90;;;;;;5024672;28;20397;-70
2022/08/26 02:19:28;;;;;;;36.95;20.73;;;20.30;99.90;;;;;;5041598;28;20041;-71
2022/08/26 02:21:56;;;;;;;37.83;21.60;;;20.30;99.90;;;;;;5042361;28;20726;-71
2022/08/26 02:24:44;;;;;;;34.10;20.27;;;20.30;99.90;;;;;;5039303;28;20396;-70
2022/08/26 02:27:10;;;;;;;38.17;21.20;;;20.20;99.90;;;;;;5026267;28;20806;-71
2022/08/26 02:29:42;;;;;;;40.30;21.35;;;20.20;99.90;;;;;;5043944;28;20072;-69
2022/08/26 02:32:08;;;;;;;30.88;20.02;;;20.20;99.90;;;;;;5041586;28;20084;-69
2022/08/26 02:34:34;;;;;;;32.65;18.98;;;20.20;99.90;;;;;;5042885;28;20067;-70
2022/08/26 02:37:05;;;;;;;32.65;19.65;;;20.20;99.90;;;;;;5009560;28;20042;-71
2022/08/26 02:39:33;;;;;;;32.38;18.80;;;20.20;99.90;;;;;;5044504;28;20072;-71
2022/08/26 02:41:59;;;;;;;33.10;19.42;;;20.20;99.90;;;;;;5042291;28;20547;-70
2022/08/26 02:44:26;;;;;;;35.03;20.58;;;20.20;99.90;;;;;;5041448;28;20073;-73
2022/08/26 02:46:52;;;;;;;33.13;19.05;;;20.20;99.90;;;;;;5027644;28;20044;-71
2022/08/26 02:49:21;;;;;;;27.83;17.83;;;20.10;99.90;;;;;;5025140;28;20094;-70
2022/08/26 02:51:48;;;;;;;32.53;18.55;;;20.20;99.90;;;;;;5046879;28;20037;-70
2022/08/26 02:54:14;;;;;;;31.85;17.15;;;20.20;99.90;;;;;;5038657;28;20041;-72
2022/08/26 02:56:40;;;;;;;27.58;17.67;;;20.10;99.90;;;;;;5027634;28;20037;-70
2022/08/26 02:59:05;;;;;;;38.97;16.45;;;20.10;99.90;;;;;;5037692;28;20060;-70
2022/08/26 03:01:33;;;;;;;34.40;16.33;;;20.10;99.90;;;;;;5044202;28;20037;-70
2022/08/26 03:04:01;;;;;;;30.92;15.88;;;20.10;99.90;;;;;;5039267;28;20041;-70
2022/08/26 03:06:28;;;;;;;32.47;15.70;;;20.10;99.90;;;;;;5031199;28;20515;-72
2022/08/26 03:08:54;;;;;;;27.40;16.02;;;20.10;99.90;;;;;;5037942;28;20652;-71
2022/08/26 03:11:21;;;;;;;28.52;16.35;;;20.10;99.90;;;;;;5039937;28;20113;-71
2022/08/26 03:13:47;;;;;;;29.45;15.63;;;20.10;99.90;;;;;;5038518;28;20060;-70
2022/08/26 03:16:13;;;;;;;28.35;15.65;;;20.10;99.90;;;;;;5029632;28;20105;-69
2022/08/26 03:18:39;;;;;;;30.95;15.60;;;20.10;99.90;;;;;;5030434;28;20468;-71
2022/08/26 03:21:12;;;;;;;30.05;15.50;;;20.10;99.90;;;;;;5024967;28;20096;-69
2022/08/26 03:23:40;;;;;;;31.77;15.35;;;20.10;99.90;;;;;;5038057;28;20056;-70
2022/08/26 03:26:07;;;;;;;29.60;15.25;;;20.10;99.90;;;;;;5040731;28;20053;-70
2022/08/26 03:28:33;;;;;;;26.77;15.30;;;20.10;99.90;;;;;;5029174;28;20125;-70
2022/08/26 03:30:59;;;;;;;28.40;14.52;;;20.10;99.90;;;;;;5038215;28;20120;-70
2022/08/26 03:33:25;;;;;;;28.45;14.93;;;20.00;99.90;;;;;;5037368;28;20073;-71
2022/08/26 03:35:51;;;;;;;24.58;13.75;;;20.10;99.90;;;;;;5040687;28;20040;-72
2022/08/26 03:38:19;;;;;;;23.85;13.70;;;20.10;99.90;;;;;;5022876;28;20551;-70
2022/08/26 03:40:45;;;;;;;22.45;12.70;;;20.00;99.90;;;;;;5046127;28;20048;-71
2022/08/26 03:43:12;;;;;;;26.50;13.02;;;20.00;99.90;;;;;;5041712;28;20045;-69
2022/08/26 03:45:38;;;;;;;21.02;12.40;;;20.00;99.90;;;;;;5038369;28;20161;-70
2022/08/26 03:48:05;;;;;;;23.52;12.40;;;20.00;99.90;;;;;;5025557;28;20049;-70
2022/08/26 03:50:31;;;;;;;23.27;11.32;;;20.00;99.90;;;;;;5041525;28;20378;-71
2022/08/26 03:52:57;;;;;;;21.30;11.13;;;20.00;99.90;;;;;;5036390;28;20447;-69
2022/08/26 03:55:26;;;;;;;23.52;11.55;;;20.00;99.90;;;;;;5040701;28;20041;-71
2022/08/26 03:57:52;;;;;;;23.35;11.70;;;19.90;99.90;;;;;;5024861;28;20530;-70
2022/08/26 04:00:19;;;;;;;19.40;11.13;;;19.90;99.90;;;;;;5046507;28;20395;-70
2022/08/26 04:02:47;;;;;;;21.10;12.30;;;19.90;99.90;;;;;;5042869;28;20044;-71
2022/08/26 04:05:16;;;;;;;21.13;12.77;;;19.90;99.90;;;;;;5041297;28;20399;-68
2022/08/26 04:07:42;;;;;;;20.90;12.82;;;19.90;99.90;;;;;;5021911;28;20489;-70
2022/08/26 04:10:11;;;;;;;20.48;12.10;;;19.90;99.90;;;;;;5040493;28;20515;-69
2022/08/26 04:12:37;;;;;;;20.70;11.68;;;19.90;99.90;;;;;;5035561;28;20046;-70
2022/08/26 04:15:06;;;;;;;23.50;12.18;;;19.90;99.90;;;;;;5039767;28;20077;-70
2022/08/26 04:17:32;;;;;;;27.58;12.27;;;19.90;99.90;;;;;;5025942;28;20044;-70
2022/08/26 04:19:57;;;;;;;18.27;11.10;;;19.90;99.90;;;;;;5043100;28;20064;-70
2022/08/26 04:22:23;;;;;;;28.50;11.25;;;19.80;99.90;;;;;;5035557;28;20055;-70
2022/08/26 04:24:49;;;;;;;22.50;10.30;;;19.90;99.90;;;;;;5039407;28;20139;-70
2022/08/26 04:27:15;;;;;;;24.90;10.13;;;19.80;99.90;;;;;;5022855;28;20386;-70
2022/08/26 04:29:40;;;;;;;22.60;9.95;;;19.80;99.90;;;;;;5041509;28;20106;-69
2022/08/26 04:32:10;;;;;;;26.20;10.73;;;19.80;99.90;;;;;;5038018;28;20118;-69
2022/08/26 04:34:37;;;;;;;27.85;11.10;;;19.80;99.90;;;;;;5036409;28;20041;-70
2022/08/26 04:37:03;;;;;;;26.60;11.05;;;19.80;99.90;;;;;;5024594;28;20072;-70
2022/08/26 04:39:29;;;;;;;24.55;11.35;;;19.80;99.90;;;;;;5041397;28;20842;-69
2022/08/26 04:41:55;;;;;;;20.60;10.85;;;19.80;99.90;;;;;;5039636;28;20107;-70
2022/08/26 04:44:23;;;;;;;24.17;11.43;;;19.80;99.90;;;;;;5036965;28;20511;-70
2022/08/26 04:46:48;;;;;;;22.30;10.45;;;19.80;99.90;;;;;;5024354;28;20661;-71
2022/08/26 04:49:14;;;;;;;27.63;11.82;;;19.80;99.90;;;;;;5036399;28;20140;-73
2022/08/26 04:51:40;;;;;;;24.42;10.20;;;19.80;99.90;;;;;;5020441;28;20042;-72
2022/08/26 04:54:06;;;;;;;21.67;10.75;;;19.80;99.90;;;;;;5018880;28;20057;-70
2022/08/26 04:56:35;;;;;;;22.65;9.77;;;19.80;99.90;;;;;;5027673;28;20682;-71
2022/08/26 04:59:02;;;;;;;25.52;10.32;;;19.80;99.90;;;;;;5035157;28;20500;-70
2022/08/26 05:01:30;;;;;;;26.35;10.13;;;19.80;99.90;;;;;;5040773;28;21382;-70
2022/08/26 05:03:56;;;;;;;24.77;10.23;;;19.80;99.90;;;;;;5033850;28;20702;-70
2022/08/26 05:06:21;;;;;;;24.33;9.65;;;19.90;99.90;;;;;;5025744;28;20053;-74
2022/08/26 05:08:47;;;;;;;24.65;9.85;;;19.70;99.90;;;;;;5037994;28;20601;-71
2022/08/26 05:11:13;;;;;;;18.45;9.25;;;19.80;99.90;;;;;;5048630;28;20087;-70
2022/08/26 05:13:39;;;;;;;22.52;10.50;;;19.80;99.90;;;;;;5041730;28;20556;-71
2022/08/26 05:16:10;;;;;;;20.92;9.27;;;19.80;99.90;;;;;;5041856;28;20132;-70
2022/08/26 05:18:37;;;;;;;20.92;8.75;;;19.80;99.90;;;;;;5031143;28;20686;-70
2022/08/26 05:21:04;;;;;;;21.90;9.18;;;19.90;99.90;;;;;;5045283;28;20396;-72
2022/08/26 05:23:30;;;;;;;21.05;8.35;;;19.90;99.90;;;;;;5041484;28;20052;-72
2022/08/26 05:25:58;;;;;;;22.38;8.00;;;19.80;99.90;;;;;;5047141;28;20045;-70
2022/08/26 05:28:25;;;;;;;21.05;9.23;;;19.90;99.90;;;;;;5030133;28;20507;-69
2022/08/26 05:30:52;;;;;;;19.77;8.32;;;19.90;99.90;;;;;;5044505;28;20045;-70
2022/08/26 05:33:17;;;;;;;20.27;8.60;;;19.90;99.90;;;;;;5039854;28;20034;-69
2022/08/26 05:35:44;;;;;;;19.13;8.45;;;20.00;99.90;;;;;;5043752;28;20048;-70
2022/08/26 05:38:14;;;;;;;22.48;7.88;;;20.00;99.90;;;;;;5026918;28;20519;-72
2022/08/26 05:40:45;;;;;;;21.45;7.95;;;20.00;99.90;;;;;;5044661;28;20049;-71
2022/08/26 05:43:12;;;;;;;21.02;7.97;;;20.00;99.90;;;;;;5042935;28;20040;-70
2022/08/26 05:45:41;;;;;;;17.13;7.47;;;20.00;99.90;;;;;;5044571;28;20044;-70
2022/08/26 05:48:07;;;;;;;19.88;7.95;;;20.10;99.90;;;;;;5025662;28;20554;-70
2022/08/26 05:50:41;;;;;;;22.13;8.38;;;20.10;99.90;;;;;;5042774;28;20465;-70
2022/08/26 05:53:08;;;;;;;21.25;8.10;;;20.10;99.90;;;;;;5039066;28;20499;-69
2022/08/26 05:55:40;;;;;;;21.02;7.53;;;20.10;99.90;;;;;;5043698;28;20128;-70
2022/08/26 05:58:06;;;;;;;20.90;7.82;;;20.10;99.90;;;;;;5022993;28;20094;-70
2022/08/26 06:00:32;;;;;;;20.08;7.30;;;20.20;99.90;;;;;;5041850;28;20067;-71
2022/08/26 06:02:57;;;;;;;15.27;5.70;;;20.10;99.90;;;;;;5043298;28;20364;-71
2022/08/26 06:05:23;;;;;;;18.15;5.65;;;20.10;99.90;;;;;;5045202;28;20068;-73
2022/08/26 06:10:33;;;;;;;15.88;5.60;;;20.10;99.90;;;;;;5042275;28;20060;-71
2022/08/26 06:13:00;;;;;;;18.92;5.70;;;20.10;99.90;;;;;;5039098;28;20041;-71
2022/08/26 06:15:26;;;;;;;13.85;4.65;;;20.10;99.90;;;;;;5043370;28;20045;-70
2022/08/26 06:17:51;;;;;;;15.63;4.78;;;20.10;99.90;;;;;;5025191;28;20119;-69
2022/08/26 06:20:17;;;;;;;11.85;4.45;;;20.20;99.90;;;;;;5046306;28;20068;-70
2022/08/26 06:25:36;;;;;;;14.07;4.40;;;20.10;99.90;;;;;;5043519;28;20499;-70
2022/08/26 06:28:04;;;;;;;12.13;4.60;;;20.20;99.90;;;;;;5026099;28;20049;-70
2022/08/26 06:30:30;;;;;;;12.13;4.47;;;20.10;99.90;;;;;;5022077;28;20045;-69
2022/08/26 06:32:56;;;;;;;15.00;5.00;;;20.10;99.90;;;;;;5043317;28;20107;-69
2022/08/26 06:35:21;;;;;;;16.42;4.75;;;20.10;99.90;;;;;;5043194;28;20534;-69
2022/08/26 06:37:47;;;;;;;12.38;4.57;;;20.10;99.90;;;;;;5024295;28;20060;-73
2022/08/26 06:40:13;;;;;;;14.65;4.75;;;20.10;99.90;;;;;;5043352;28;20075;-69
2022/08/26 06:42:39;;;;;;;13.57;4.70;;;20.10;99.90;;;;;;5025706;28;20141;-70
2022/08/26 06:45:05;;;;;;;13.40;4.72;;;20.10;99.90;;;;;;5043388;28;20052;-70
2022/08/26 06:47:31;;;;;;;16.67;4.85;;;20.10;99.90;;;;;;5024050;28;20207;-70
2022/08/26 06:49:57;;;;;;;9.80;3.95;;;20.00;99.90;;;;;;5039530;28;20128;-70
2022/08/26 06:52:22;;;;;;;14.65;4.40;;;20.10;99.90;;;;;;5040089;28;20045;-70
2022/08/26 06:54:49;;;;;;;12.18;4.05;;;20.10;99.90;;;;;;5041814;28;20439;-71
2022/08/26 06:57:15;;;;;;;13.48;3.85;;;20.10;99.90;;;;;;5024094;28;20092;-71
2022/08/26 06:59:40;;;;;;;15.07;4.20;;;20.10;99.90;;;;;;5039585;28;20073;-71
2022/08/26 07:02:06;;;;;;;13.05;3.95;;;20.10;99.90;;;;;;5039619;28;20636;-70
2022/08/26 07:04:33;;;;;;;10.25;4.00;;;20.10;99.90;;;;;;5046278;28;20041;-71
2022/08/26 07:06:59;;;;;;;15.02;3.80;;;20.20;99.90;;;;;;5026291;28;20495;-71
2022/08/26 07:09:26;;;;;;;13.65;4.10;;;20.20;99.90;;;;;;5038979;28;20060;-70
2022/08/26 07:11:54;;;;;;;9.15;2.85;;;20.10;99.90;;;;;;5040785;28;20063;-71
2022/08/26 07:14:20;;;;;;;8.55;2.90;;;20.10;99.90;;;;;;5040875;28;20048;-71
2022/08/26 07:16:46;;;;;;;9.95;3.17;;;20.10;99.90;;;;;;5025640;28;20051;-72
2022/08/26 07:19:12;;;;;;;11.48;2.80;;;20.20;99.90;;;;;;5038187;28;20480;-73
2022/08/26 07:21:40;;;;;;;10.35;2.47;;;20.20;99.90;;;;;;5039160;28;20088;-72
2022/08/26 07:24:07;;;;;;;11.10;2.33;;;20.10;99.90;;;;;;5040193;28;20143;-70
2022/08/26 07:26:33;;;;;;;16.42;2.92;;;20.10;99.90;;;;;;5032516;28;20389;-71
2022/08/26 07:28:59;;;;;;;13.70;2.65;;;20.10;99.90;;;;;;5038323;28;20060;-72
2022/08/26 07:31:28;;;;;;;11.52;2.92;;;20.10;99.90;;;;;;5045494;28;20076;-71
2022/08/26 07:33:54;;;;;;;12.38;3.25;;;20.10;99.90;;;;;;5042094;28;20044;-70
2022/08/26 07:36:20;;;;;;;8.70;2.13;;;20.00;99.90;;;;;;5027909;28;20397;-71
2022/08/26 07:38:47;;;;;;;15.38;2.67;;;20.00;99.90;;;;;;5036607;28;20484;-71
2022/08/26 07:41:15;;;;;;;14.48;3.00;;;20.10;99.90;;;;;;5041721;28;20053;-74
2022/08/26 07:43:41;;;;;;;15.40;3.50;;;20.10;99.90;;;;;;5041279;28;20080;-72
2022/08/26 07:46:07;;;;;;;11.82;3.00;;;20.10;99.90;;;;;;5037080;28;20060;-74
2022/08/26 07:48:34;;;;;;;11.25;2.63;;;20.10;99.90;;;;;;5035642;28;20041;-71
2022/08/26 07:51:00;;;;;;;14.23;3.38;;;20.10;99.90;;;;;;5027253;28;20480;-71
2022/08/26 07:53:26;;;;;;;15.70;3.17;;;20.10;99.90;;;;;;5042542;28;20080;-72
2022/08/26 07:55:51;;;;;;;10.85;2.42;;;20.10;99.90;;;;;;5039666;28;20110;-71
2022/08/26 07:58:17;;;;;;;10.77;2.30;;;20.00;99.90;;;;;;5022561;28;20082;-71
2022/08/26 08:00:43;;;;;;;10.25;2.53;;;20.00;99.90;;;;;;5040534;28;20040;-72
2022/08/26 08:03:09;;;;;;;9.18;2.20;;;20.00;99.90;;;;;;5040643;28;20076;-71
2022/08/26 08:05:35;;;;;;;6.03;2.10;;;20.00;99.90;;;;;;5038174;28;20499;-71
2022/08/26 08:08:04;;;;;;;9.63;2.20;;;20.00;99.90;;;;;;5019976;28;20050;-73
2022/08/26 08:10:30;;;;;;;12.55;2.10;;;20.00;99.90;;;;;;5040499;28;20053;-71
2022/08/26 08:12:57;;;;;;;10.95;2.10;;;20.00;99.90;;;;;;5037480;28;20099;-70
2022/08/26 08:15:26;;;;;;;9.38;2.35;;;20.10;99.90;;;;;;5041215;28;20049;-71
2022/08/26 08:17:52;;;;;;;10.63;2.22;;;20.10;99.90;;;;;;5024158;28;20045;-71
2022/08/26 08:20:19;;;;;;;10.52;1.92;;;20.10;99.90;;;;;;5042623;28;20160;-72
2022/08/26 08:22:44;;;;;;;11.88;2.22;;;20.00;99.90;;;;;;5044413;28;20044;-73
2022/08/26 08:25:11;;;;;;;12.82;2.33;;;20.00;99.90;;;;;;5038403;28;20057;-70
2022/08/26 08:27:38;;;;;;;11.73;2.00;;;19.90;99.90;;;;;;5021380;28;20048;-72
2022/08/26 08:30:06;;;;;;;10.00;1.90;;;19.90;99.90;;;;;;5039169;28;20052;-70
2022/08/26 08:32:32;;;;;;;12.80;2.13;;;19.90;99.90;;;;;;5043820;28;20403;-72
2022/08/26 08:34:58;;;;;;;10.43;2.28;;;19.90;99.90;;;;;;5044255;28;20052;-72
2022/08/26 08:37:25;;;;;;;11.32;2.00;;;19.90;99.90;;;;;;5024094;28;20052;-73
2022/08/26 08:39:50;;;;;;;7.78;2.00;;;19.90;99.90;;;;;;5044322;28;20128;-71
2022/08/26 08:42:37;;;;;;;12.23;2.05;;;19.90;99.90;;;;;;5025462;28;20140;-71
2022/08/26 08:45:10;;;;;;;10.02;1.77;;;19.90;99.90;;;;;;5045647;28;20059;-73
2022/08/26 08:47:52;;;;;;;11.90;2.35;;;19.90;99.90;;;;;;5029945;28;20487;-71
2022/08/26 08:50:43;;;;;;;8.85;2.20;;;19.90;99.90;;;;;;5042443;28;20041;-70
2022/08/26 08:53:09;;;;;;;15.63;2.47;;;19.90;99.90;;;;;;5037680;28;20098;-72
2022/08/26 08:55:47;;;;;;;10.48;2.00;;;19.90;99.90;;;;;;5042927;28;20053;-71
2022/08/26 08:58:17;;;;;;;10.85;2.30;;;19.90;99.90;;;;;;5029562;28;20040;-71
2022/08/26 09:01:15;;;;;;;9.23;1.92;;;19.90;99.90;;;;;;5048363;28;20045;-71
2022/08/26 09:03:53;;;;;;;10.25;2.22;;;20.00;99.90;;;;;;5040183;28;20045;-70
2022/08/26 09:06:19;;;;;;;9.77;2.17;;;20.00;99.90;;;;;;5031380;28;20044;-71
2022/08/26 09:08:48;;;;;;;10.25;1.92;;;20.00;99.90;;;;;;5019067;28;20068;-73
2022/08/26 09:11:15;;;;;;;12.13;2.50;;;20.00;99.90;;;;;;5046515;28;20049;-70
2022/08/26 09:13:51;;;;;;;12.68;2.45;;;20.00;99.90;;;;;;5040530;28;20045;-71
2022/08/26 09:16:26;;;;;;;9.05;2.00;;;20.10;99.90;;;;;;5018738;28;20041;-72
2022/08/26 09:19:25;;;;;;;10.60;2.35;;;20.00;99.90;;;;;;5035020;28;20115;-70
2022/08/26 09:21:58;;;;;;;11.73;3.08;;;20.10;99.90;;;;;;5042012;28;20680;-69
2022/08/26 09:24:24;;;;;;;15.70;2.70;;;20.20;99.90;;;;;;5037677;28;20040;-71
2022/08/26 09:26:51;;;;;;;10.05;2.10;;;20.30;99.90;;;;;;5028323;28;20044;-74
2022/08/26 09:29:39;;;;;;;11.77;2.40;;;20.40;99.90;;;;;;5037080;28;20062;-71
2022/08/26 09:32:23;;;;;;;10.65;2.17;;;20.40;99.90;;;;;;5044478;28;20061;-71
2022/08/26 09:35:00;;;;;;;10.48;2.13;;;20.40;99.90;;;;;;5042757;28;20108;-69
2022/08/26 09:37:41;;;;;;;13.73;2.25;;;20.40;99.90;;;;;;5029401;28;20045;-70
2022/08/26 09:40:25;;;;;;;11.18;2.10;;;20.40;99.90;;;;;;5043116;28;20045;-71
2022/08/26 09:43:21;;;;;;;13.27;2.17;;;20.30;99.90;;;;;;5043952;28;20134;-71
2022/08/26 09:45:55;;;;;;;15.43;2.50;;;20.40;99.90;;;;;;5039265;28;20045;-71
2022/08/26 09:48:34;;;;;;;8.40;1.75;;;20.40;99.90;;;;;;5025970;28;20052;-71
2022/08/26 09:51:06;;;;;;;12.98;2.28;;;20.40;99.90;;;;;;5041545;28;20393;-71
2022/08/26 09:53:36;;;;;;;11.52;1.80;;;20.50;99.90;;;;;;5044815;28;20065;-70
2022/08/26 09:56:15;;;;;;;8.95;2.10;;;20.50;99.90;;;;;;5042035;28;20072;-71
2022/08/26 09:58:44;;;;;;;5.93;1.50;;;20.50;99.90;;;;;;5038396;28;20408;-71
2022/08/26 10:01:31;;;;;;;11.48;2.10;;;20.60;99.90;;;;;;5040127;28;20579;-72
2022/08/26 10:04:09;;;;;;;8.27;1.75;;;20.50;99.90;;;;;;5045700;28;20041;-71
2022/08/26 10:06:53;;;;;;;10.43;1.90;;;20.50;99.90;;;;;;5027055;28;20564;-71
2022/08/26 10:09:19;;;;;;;12.63;1.67;;;20.50;99.90;;;;;;5044196;28;20068;-71
2022/08/26 10:11:50;;;;;;;10.23;1.88;;;20.50;99.90;;;;;;5043476;28;20053;-72
2022/08/26 10:14:16;;;;;;;;;;;20.40;99.90;;;;;;5041919;28;20037;-71
2022/08/26 10:17:02;;;;;;;7.97;1.70;;;20.50;99.90;;;;;;5026575;28;19931;-70
2022/08/26 10:19:34;;;;;;;13.75;1.67;;;20.50;99.90;;;;;;5043018;28;20049;-71
2022/08/26 10:22:06;;;;;;;9.98;2.08;;;20.60;99.90;;;;;;5039963;28;20565;-72
2022/08/26 10:24:43;;;;;;;11.13;2.15;;;20.60;99.90;;;;;;5043158;28;20045;-71
2022/08/26 10:27:42;;;;;;;9.02;2.00;;;20.50;99.90;;;;;;5021898;28;20630;-71
2022/08/26 10:30:20;;;;;;;8.70;1.98;;;20.30;99.90;;;;;;5047780;28;20055;-70
2022/08/26 10:32:50;;;;;;;9.40;1.88;;;20.30;99.90;;;;;;5041095;28;20044;-72
2022/08/26 10:35:18;;;;;;;13.40;2.20;;;20.40;99.90;;;;;;5040178;28;20045;-70
2022/08/26 10:37:59;;;;;;;14.68;2.17;;;20.30;99.90;;;;;;5022211;28;20060;-72
2022/08/26 10:40:55;;;;;;;12.70;1.95;;;20.20;99.90;;;;;;5038351;28;20052;-71
2022/08/26 10:43:28;;;;;;;10.75;2.45;;;20.20;99.90;;;;;;5000171;28;1091696;-74
2022/08/26 10:46:02;;;;;;;11.60;1.40;;;20.10;99.90;;;;;;5042292;28;20068;-70
2022/08/26 10:48:48;;;;;;;10.18;1.95;;;20.10;99.90;;;;;;5022097;28;20041;-70
2022/08/26 10:51:20;;;;;;;8.48;1.70;;;20.20;99.90;;;;;;5040809;28;20128;-69
2022/08/26 10:54:06;;;;;;;10.95;1.95;;;20.10;99.90;;;;;;5042550;28;20040;-71
2022/08/26 10:56:52;;;;;;;11.20;1.80;;;20.10;99.90;;;;;;5026485;28;20115;-72
2022/08/26 10:59:29;;;;;;;8.38;1.98;;;20.10;99.90;;;;;;5036429;28;20052;-71
2022/08/26 11:02:10;;;;;;;10.93;1.92;;;20.10;99.90;;;;;;5047301;28;20496;-73
2022/08/26 11:04:40;;;;;;;9.38;2.05;;;20.00;99.90;;;;;;5042402;28;20045;-74
2022/08/26 11:07:35;;;;;;;7.55;1.60;;;20.00;99.90;;;;;;5022955;28;20071;-69
2022/08/26 11:10:21;;;;;;;6.40;1.60;;;20.10;99.90;;;;;;5032756;28;20095;-70
2022/08/26 11:12:57;;;;;;;7.90;1.70;;;20.20;99.90;;;;;;5023819;28;20048;-71
2022/08/26 11:15:26;;;;;;;9.27;1.88;;;20.10;99.90;;;;;;5044300;28;20087;-70
2022/08/26 11:17:54;;;;;;;7.35;1.77;;;20.10;99.90;;;;;;5026990;28;20045;-71
2022/08/26 11:20:45;;;;;;;9.02;1.80;;;20.10;99.90;;;;;;5041527;28;20049;-70
2022/08/26 11:23:11;;;;;;;8.57;2.00;;;20.20;99.90;;;;;;5041797;28;20049;-71
2022/08/26 11:26:04;;;;;;;7.55;1.80;;;20.30;99.90;;;;;;5042671;28;20040;-73
2022/08/26 11:28:46;;;;;;;6.32;2.10;;;20.30;99.90;;;;;;5019156;28;20049;-69
2022/08/26 11:31:18;;;;;;;10.52;2.40;;;20.40;99.90;;;;;;5041078;28;20128;-71
2022/08/26 11:33:50;;;;;;;7.32;1.88;;;20.30;99.90;;;;;;5040582;28;20083;-71
2022/08/26 11:36:36;;;;;;;6.78;1.60;;;20.20;99.90;;;;;;5033283;28;20045;-72
2022/08/26 11:39:34;;;;;;;4.88;1.60;;;20.10;99.90;;;;;;5049220;28;20176;-69
2022/08/26 11:42:18;;;;;;;6.03;1.70;;;20.10;99.90;;;;;;5025634;28;20132;-71
2022/08/26 11:44:44;;;;;;;6.90;1.90;;;20.00;99.90;;;;;;5038715;28;20037;-72
2022/08/26 11:47:14;;;;;;;8.20;1.65;;;20.10;99.90;;;;;;5027890;28;20037;-70
2022/08/26 11:49:40;;;;;;;8.32;1.60;;;20.00;99.90;;;;;;5035603;28;20041;-71
2022/08/26 11:52:08;;;;;;;9.13;1.90;;;20.00;99.90;;;;;;5039979;28;20053;-70
2022/08/26 11:54:34;;;;;;;7.18;1.70;;;20.00;99.90;;;;;;5041464;28;20048;-71
2022/08/26 11:57:00;;;;;;;8.73;1.80;;;20.00;99.90;;;;;;5025414;28;20041;-70
2022/08/26 11:59:37;;;;;;;8.00;1.90;;;20.00;99.90;;;;;;5039639;28;20069;-70
2022/08/26 12:02:11;;;;;;;7.82;1.77;;;20.10;99.90;;;;;;5039514;28;20500;-70
2022/08/26 12:04:39;;;;;;;6.68;1.58;;;20.20;99.90;;;;;;5044382;28;20045;-70
2022/08/26 12:07:08;;;;;;;7.10;1.90;;;20.30;99.90;;;;;;5023988;28;20049;-69
2022/08/26 12:09:48;;;;;;;5.45;1.50;;;20.40;99.90;;;;;;5019762;28;20124;-71
2022/08/26 12:12:23;;;;;;;8.55;2.15;;;20.50;99.90;;;;;;5024689;28;20044;-72
2022/08/26 12:15:05;;;;;;;7.18;1.60;;;20.70;99.90;;;;;;5044336;28;20362;-70
2022/08/26 12:17:30;;;;;;;7.70;2.00;;;20.60;99.90;;;;;;5022753;28;20057;-70
2022/08/26 12:19:56;;;;;;;10.10;1.98;;;20.70;99.90;;;;;;5043684;28;20044;-71
2022/08/26 12:22:33;;;;;;;6.85;1.88;;;20.70;99.90;;;;;;5039169;28;20118;-70
2022/08/26 12:25:03;;;;;;;11.25;2.15;;;20.60;99.90;;;;;;5044893;28;20041;-71
2022/08/26 12:27:38;;;;;;;9.95;2.08;;;20.60;99.90;;;;;;5025949;28;20377;-70
2022/08/26 12:30:09;;;;;;;9.65;2.50;;;20.40;99.90;;;;;;5043069;28;20048;-73
2022/08/26 12:32:45;;;;;;;6.43;2.15;;;20.40;99.90;;;;;;5043691;28;20052;-72
2022/08/26 12:35:17;;;;;;;11.18;2.10;;;20.30;99.90;;;;;;5040557;28;20063;-70
2022/08/26 12:37:47;;;;;;;8.63;2.05;;;20.20;99.90;;;;;;5025557;28;20440;-70
2022/08/26 12:40:33;;;;;;;13.05;2.33;;;20.10;99.90;;;;;;5039794;28;20064;-69
2022/08/26 12:43:01;;;;;;;10.38;2.25;;;20.00;99.90;;;;;;5041923;28;20061;-71
2022/08/26 12:45:33;;;;;;;9.30;2.50;;;19.90;99.90;;;;;;5041655;28;20144;-73
2022/08/26 12:48:10;;;;;;;8.77;2.45;;;19.80;99.90;;;;;;5025550;28;20083;-70
2022/08/26 12:50:43;;;;;;;8.02;2.42;;;19.80;99.90;;;;;;5045253;28;20060;-72
2022/08/26 12:53:08;;;;;;;8.82;2.83;;;19.70;99.90;;;;;;5039316;28;20045;-71
2022/08/26 12:55:34;;;;;;;11.57;2.72;;;19.70;99.90;;;;;;5023609;28;20206;-71